createdAt,value
2023-05-06T00:00:53.886Z,16.90
2023-05-06T00:03:21.427Z,16.90
2023-05-06T00:05:49.670Z,16.90
2023-05-06T00:08:17.318Z,16.90
2023-05-06T00:10:45.007Z,16.80
2023-05-06T00:13:12.906Z,16.80
2023-05-06T00:15:40.562Z,16.80
2023-05-06T00:18:07.954Z,16.80
2023-05-06T00:20:35.650Z,16.70
2023-05-06T00:23:03.072Z,16.70
2023-05-06T00:25:30.448Z,16.70
2023-05-06T00:27:57.864Z,16.60
2023-05-06T00:30:25.952Z,16.60
2023-05-06T00:32:56.014Z,16.60
2023-05-06T00:35:23.478Z,16.50
2023-05-06T00:38:06.827Z,16.60
2023-05-06T00:40:34.315Z,16.50
2023-05-06T00:43:01.721Z,16.50
2023-05-06T00:45:29.453Z,16.50
2023-05-06T00:47:58.053Z,16.40
2023-05-06T00:50:28.319Z,16.40
2023-05-06T00:52:58.148Z,16.40
2023-05-06T00:55:26.172Z,16.40
2023-05-06T00:57:54.526Z,16.30
2023-05-06T01:00:22.154Z,16.30
2023-05-06T01:02:49.936Z,16.20
2023-05-06T01:05:22.572Z,16.30
2023-05-06T01:08:06.902Z,16.30
2023-05-06T01:10:44.570Z,16.20
2023-05-06T01:13:24.736Z,16.20
2023-05-06T01:15:55.642Z,16.20
2023-05-06T01:18:25.935Z,16.20
2023-05-06T01:20:54.719Z,16.20
2023-05-06T01:23:22.141Z,16.10
2023-05-06T01:25:49.516Z,16.10
2023-05-06T01:28:17.483Z,16.10
2023-05-06T01:30:50.954Z,16.10
2023-05-06T01:33:45.124Z,16.10
2023-05-06T01:36:30.369Z,16.20
2023-05-06T01:39:08.760Z,16.10
2023-05-06T01:41:37.518Z,16.20
2023-05-06T01:44:07.076Z,16.20
2023-05-06T01:46:36.272Z,16.20
2023-05-06T01:49:10.527Z,16.10
2023-05-06T01:51:38.613Z,16.10
2023-05-06T01:54:06.298Z,16.20
2023-05-06T01:56:33.681Z,16.10
2023-05-06T01:59:01.089Z,16.00
2023-05-06T02:01:28.582Z,16.10
2023-05-06T02:03:56.240Z,16.00
2023-05-06T02:06:24.199Z,15.80
2023-05-06T02:08:51.819Z,15.80
2023-05-06T02:11:22.282Z,15.80
2023-05-06T02:13:52.386Z,15.80
2023-05-06T02:16:21.817Z,15.80
2023-05-06T02:18:49.769Z,15.80
2023-05-06T02:21:17.988Z,15.70
2023-05-06T02:23:45.458Z,15.70
2023-05-06T02:26:12.828Z,15.80
2023-05-06T02:28:40.340Z,15.70
2023-05-06T02:31:07.747Z,15.80
2023-05-06T02:33:35.136Z,15.70
2023-05-06T02:36:03.125Z,15.70
2023-05-06T02:38:30.491Z,15.70
2023-05-06T02:40:57.862Z,15.70
2023-05-06T02:43:26.936Z,15.70
2023-05-06T02:45:54.372Z,15.60
2023-05-06T02:48:21.963Z,15.50
2023-05-06T02:50:49.949Z,15.40
2023-05-06T02:53:17.359Z,15.30
2023-05-06T02:55:44.779Z,15.30
2023-05-06T02:58:12.211Z,15.20
2023-05-06T03:00:39.612Z,15.20
2023-05-06T03:03:07.050Z,15.10
2023-05-06T03:05:34.530Z,15.10
2023-05-06T03:08:02.553Z,15.20
2023-05-06T03:10:31.092Z,15.20
2023-05-06T03:12:59.628Z,15.10
2023-05-06T03:15:28.305Z,15.10
2023-05-06T03:17:55.861Z,15.10
2023-05-06T03:20:24.292Z,15.10
2023-05-06T03:22:56.058Z,15.10
2023-05-06T03:25:24.382Z,15.10
2023-05-06T03:27:53.253Z,15.10
2023-05-06T03:30:23.228Z,15.10
2023-05-06T03:32:56.723Z,15.10
2023-05-06T03:35:30.058Z,15.20
2023-05-06T03:37:59.983Z,15.20
2023-05-06T03:40:33.938Z,15.30
2023-05-06T03:43:01.405Z,15.30
2023-05-06T03:45:28.972Z,15.30
2023-05-06T03:47:59.522Z,15.20
2023-05-06T03:50:27.448Z,15.10
2023-05-06T03:52:55.630Z,15.00
2023-05-06T03:55:25.456Z,15.00
2023-05-06T03:57:53.036Z,15.10
2023-05-06T04:00:21.856Z,15.10
2023-05-06T04:02:53.646Z,15.10
2023-05-06T04:05:29.692Z,15.20
2023-05-06T04:07:58.053Z,15.20
2023-05-06T04:10:25.555Z,15.10
2023-05-06T04:12:56.012Z,15.20
2023-05-06T04:15:31.991Z,15.20
2023-05-06T04:18:01.689Z,15.30
2023-05-06T04:20:29.756Z,15.30
2023-05-06T04:22:57.322Z,15.30
2023-05-06T04:25:24.814Z,15.30
2023-05-06T04:27:52.209Z,15.30
2023-05-06T04:30:21.114Z,15.40
2023-05-06T04:32:51.276Z,15.50
2023-05-06T04:35:19.499Z,15.60
2023-05-06T04:37:48.933Z,15.70
2023-05-06T04:40:22.779Z,15.80
2023-05-06T04:42:52.464Z,15.90
2023-05-06T04:45:24.460Z,15.90
2023-05-06T04:47:53.343Z,15.90
2023-05-06T04:50:20.801Z,16.00
2023-05-06T04:52:48.623Z,16.00
2023-05-06T04:55:18.342Z,16.10
2023-05-06T04:57:50.264Z,16.10
2023-05-06T05:00:18.112Z,16.30
2023-05-06T05:02:46.905Z,16.40
2023-05-06T05:05:16.388Z,16.40
2023-05-06T05:07:46.393Z,16.40
2023-05-06T05:10:14.333Z,16.40
2023-05-06T05:12:42.130Z,16.40
2023-05-06T05:15:10.210Z,16.50
2023-05-06T05:17:38.932Z,16.50
2023-05-06T05:20:08.263Z,16.40
2023-05-06T05:22:36.737Z,16.60
2023-05-06T05:25:06.336Z,16.70
2023-05-06T05:27:36.513Z,16.80
2023-05-06T05:30:04.370Z,16.90
2023-05-06T05:32:34.716Z,17.10
2023-05-06T05:35:04.049Z,17.30
2023-05-06T05:37:31.854Z,17.60
2023-05-06T05:39:59.401Z,17.80
2023-05-06T05:42:27.919Z,18.00
2023-05-06T05:44:55.759Z,18.20
2023-05-06T05:47:23.468Z,18.30
2023-05-06T05:49:51.621Z,18.50
2023-05-06T05:52:20.079Z,18.70
2023-05-06T05:54:47.703Z,19.00
2023-05-06T05:57:16.100Z,19.30
2023-05-06T05:59:43.784Z,19.70
2023-05-06T06:02:11.292Z,20.30
2023-05-06T06:04:38.786Z,21.10
2023-05-06T06:07:06.335Z,21.80
2023-05-06T06:09:38.325Z,22.70
2023-05-06T06:12:06.696Z,23.40
2023-05-06T06:14:38.234Z,24.20
2023-05-06T06:17:06.073Z,24.90
2023-05-06T06:19:36.648Z,25.40
2023-05-06T06:22:04.180Z,25.80
2023-05-06T06:24:34.943Z,25.70
2023-05-06T06:27:02.435Z,26.20
2023-05-06T06:29:29.928Z,26.50
2023-05-06T06:31:58.254Z,26.90
2023-05-06T06:34:25.928Z,27.40
2023-05-06T06:36:53.297Z,27.80
2023-05-06T06:39:20.865Z,27.70
2023-05-06T06:41:48.252Z,27.60
2023-05-06T06:44:15.738Z,27.40
2023-05-06T06:46:43.155Z,27.40
2023-05-06T06:49:10.527Z,26.80
2023-05-06T06:51:37.880Z,27.00
2023-05-06T06:54:05.310Z,26.70
2023-05-06T06:56:32.762Z,26.30
2023-05-06T06:59:00.212Z,25.80
2023-05-06T07:01:27.623Z,25.50
2023-05-06T07:03:55.140Z,24.90
2023-05-06T07:06:22.635Z,24.80
2023-05-06T07:08:49.996Z,24.70
2023-05-06T07:11:17.439Z,25.20
2023-05-06T07:13:44.805Z,25.90
2023-05-06T07:16:12.211Z,26.80
2023-05-06T07:18:39.568Z,27.50
2023-05-06T07:21:07.021Z,28.00
2023-05-06T07:23:36.868Z,28.80
2023-05-06T07:26:04.338Z,29.30
2023-05-06T07:28:31.770Z,29.60
2023-05-06T07:30:59.183Z,29.90
2023-05-06T07:33:26.659Z,29.70
2023-05-06T07:35:54.863Z,29.20
2023-05-06T07:38:23.014Z,29.30
2023-05-06T07:40:51.433Z,29.60
2023-05-06T07:43:18.812Z,30.10
2023-05-06T07:45:46.225Z,30.60
2023-05-06T07:48:13.688Z,31.00
2023-05-06T07:50:41.152Z,31.10
2023-05-06T07:53:08.534Z,31.20
2023-05-06T07:55:37.654Z,31.10
2023-05-06T07:58:05.033Z,31.50
2023-05-06T08:00:32.480Z,31.70
2023-05-06T08:02:59.915Z,31.90
2023-05-06T08:05:27.393Z,31.70
2023-05-06T08:07:55.695Z,32.10
2023-05-06T08:10:23.242Z,32.20
2023-05-06T08:12:50.837Z,31.90
2023-05-06T08:15:18.317Z,31.70
2023-05-06T08:17:45.914Z,32.20
2023-05-06T08:20:13.929Z,32.40
2023-05-06T08:22:41.301Z,32.80
2023-05-06T08:25:10.253Z,33.10
2023-05-06T08:27:37.934Z,32.90
2023-05-06T08:30:05.859Z,33.00
2023-05-06T08:32:33.269Z,33.00
2023-05-06T08:35:00.819Z,33.30
2023-05-06T08:37:28.269Z,33.40
2023-05-06T08:39:55.674Z,33.70
2023-05-06T08:42:26.419Z,33.60
2023-05-06T08:44:56.023Z,34.00
2023-05-06T08:47:23.564Z,34.00
2023-05-06T08:49:51.052Z,33.90
2023-05-06T08:52:21.396Z,34.00
2023-05-06T08:54:53.527Z,33.50
2023-05-06T08:57:21.689Z,33.80
2023-05-06T08:59:49.094Z,34.00
2023-05-06T09:02:16.537Z,34.40
2023-05-06T09:04:45.319Z,34.50
2023-05-06T09:07:12.792Z,34.10
2023-05-06T09:09:40.135Z,34.10
2023-05-06T09:12:12.241Z,34.00
2023-05-06T09:14:43.001Z,33.10
2023-05-06T09:17:24.429Z,33.50
2023-05-06T09:19:59.451Z,34.00
2023-05-06T09:22:29.430Z,33.80
2023-05-06T09:24:58.423Z,33.40
2023-05-06T09:27:31.176Z,33.80
2023-05-06T09:30:12.400Z,33.60
2023-05-06T09:32:40.973Z,33.60
2023-05-06T09:35:10.456Z,34.00
2023-05-06T09:37:38.141Z,34.10
2023-05-06T09:40:06.144Z,34.20
2023-05-06T09:42:34.434Z,34.30
2023-05-06T09:45:04.276Z,34.30
2023-05-06T09:47:35.651Z,34.30
2023-05-06T09:50:04.359Z,34.50
2023-05-06T09:52:31.863Z,34.40
2023-05-06T09:55:00.531Z,34.40
2023-05-06T09:57:30.864Z,33.60
2023-05-06T09:59:59.209Z,34.00
2023-05-06T10:02:27.466Z,34.20
2023-05-06T10:04:57.468Z,34.40
2023-05-06T10:07:28.846Z,34.30
2023-05-06T10:09:58.365Z,34.40
2023-05-06T10:12:26.216Z,34.20
2023-05-06T10:14:53.670Z,34.20
2023-05-06T10:17:24.502Z,34.50
2023-05-06T10:19:55.856Z,34.90
2023-05-06T10:22:31.240Z,34.40
2023-05-06T10:25:06.921Z,33.90
2023-05-06T10:27:37.869Z,34.20
2023-05-06T10:30:07.421Z,34.30
2023-05-06T10:32:35.029Z,34.60
2023-05-06T10:35:34.363Z,34.90
2023-05-06T10:38:03.835Z,34.20
2023-05-06T10:40:31.897Z,33.60
2023-05-06T10:43:31.247Z,34.10
2023-05-06T10:46:00.568Z,33.60
2023-05-06T10:48:28.857Z,33.80
2023-05-06T10:51:19.970Z,34.10
2023-05-06T10:53:56.236Z,33.80
2023-05-06T10:56:23.832Z,33.10
2023-05-06T10:58:51.796Z,32.50
2023-05-06T11:01:22.830Z,32.10
2023-05-06T11:03:50.934Z,31.20
2023-05-06T11:06:39.472Z,30.50
2023-05-06T11:09:14.980Z,30.00
2023-05-06T11:11:52.053Z,29.30
2023-05-06T11:14:35.518Z,28.90
2023-05-06T11:17:04.986Z,28.60
2023-05-06T11:19:34.809Z,28.40
2023-05-06T11:22:04.073Z,28.20
2023-05-06T11:24:32.250Z,27.90
2023-05-06T11:27:00.561Z,27.50
2023-05-06T11:29:28.223Z,27.50
2023-05-06T11:31:55.866Z,27.10
2023-05-06T11:34:31.054Z,26.90
2023-05-06T11:37:00.663Z,26.80
2023-05-06T11:39:38.801Z,26.80
2023-05-06T11:42:08.800Z,26.80
2023-05-06T11:44:38.058Z,26.60
2023-05-06T11:47:07.504Z,26.60
2023-05-06T11:49:38.641Z,26.60
2023-05-06T11:52:06.293Z,26.60
2023-05-06T11:54:39.732Z,26.40
2023-05-06T11:57:07.463Z,26.40
2023-05-06T11:59:39.664Z,26.50
2023-05-06T12:02:08.491Z,26.60
2023-05-06T12:04:47.310Z,26.60
2023-05-06T12:07:16.395Z,26.70
2023-05-06T12:09:47.536Z,26.60
2023-05-06T12:12:19.997Z,26.60
2023-05-06T12:14:49.314Z,26.40
2023-05-06T12:17:16.962Z,26.30
2023-05-06T12:19:45.814Z,26.50
2023-05-06T12:22:18.116Z,26.60
2023-05-06T12:24:46.335Z,26.80
2023-05-06T12:27:14.237Z,26.90
2023-05-06T12:29:53.565Z,26.80
2023-05-06T12:32:20.967Z,26.90
2023-05-06T12:34:48.365Z,26.90
2023-05-06T12:37:27.658Z,26.90
2023-05-06T12:39:58.490Z,26.90
2023-05-06T12:42:27.278Z,27.00
2023-05-06T12:44:54.649Z,27.10
2023-05-06T12:47:26.513Z,26.90
2023-05-06T12:49:54.851Z,27.00
2023-05-06T12:52:24.459Z,26.90
2023-05-06T12:54:52.920Z,26.90
2023-05-06T12:57:23.579Z,26.90
2023-05-06T12:59:51.079Z,26.80
2023-05-06T13:02:18.983Z,26.70
2023-05-06T13:04:47.048Z,26.60
2023-05-06T13:07:14.618Z,26.60
2023-05-06T13:09:41.982Z,26.40
2023-05-06T13:12:09.406Z,26.40
2023-05-06T13:14:39.296Z,26.40
2023-05-06T13:17:08.294Z,26.40
2023-05-06T13:19:35.979Z,26.50
2023-05-06T13:22:03.891Z,26.60
2023-05-06T13:24:32.353Z,26.60
2023-05-06T13:27:01.347Z,26.80
2023-05-06T13:29:29.742Z,26.90
2023-05-06T13:31:58.424Z,27.00
2023-05-06T13:34:26.087Z,27.20
2023-05-06T13:36:55.028Z,27.20
2023-05-06T13:39:23.134Z,27.20
2023-05-06T13:41:50.676Z,27.20
2023-05-06T13:44:19.439Z,27.30
2023-05-06T13:46:47.696Z,27.40
2023-05-06T13:49:15.351Z,27.50
2023-05-06T13:51:42.746Z,27.60
2023-05-06T13:54:10.333Z,27.70
2023-05-06T13:56:37.813Z,27.70
2023-05-06T13:59:05.256Z,27.80
2023-05-06T14:01:32.657Z,27.80
2023-05-06T14:04:00.219Z,27.80
2023-05-06T14:06:27.721Z,27.40
2023-05-06T14:08:55.773Z,27.50
2023-05-06T14:11:23.253Z,27.60
2023-05-06T14:13:50.668Z,27.70
2023-05-06T14:16:18.242Z,27.80
2023-05-06T14:18:45.748Z,28.00
2023-05-06T14:21:13.208Z,28.20
2023-05-06T14:23:40.564Z,28.30
2023-05-06T14:26:08.073Z,28.30
2023-05-06T14:28:35.819Z,28.30
2023-05-06T14:31:03.262Z,28.20
2023-05-06T14:33:30.724Z,28.20
2023-05-06T14:35:58.373Z,28.20
2023-05-06T14:38:25.832Z,28.30
2023-05-06T14:40:53.204Z,28.20
2023-05-06T14:43:20.577Z,28.30
2023-05-06T14:45:48.084Z,28.20
2023-05-06T14:48:15.739Z,28.00
2023-05-06T14:50:43.227Z,28.00
2023-05-06T14:53:10.617Z,27.90
2023-05-06T14:55:38.054Z,27.60
2023-05-06T14:58:05.428Z,27.70
2023-05-06T15:00:32.912Z,27.70
2023-05-06T15:03:00.449Z,27.50
2023-05-06T15:05:27.951Z,27.60
2023-05-06T15:07:55.351Z,27.60
2023-05-06T15:10:22.740Z,27.60
2023-05-06T15:12:50.136Z,27.60
2023-05-06T15:15:17.533Z,27.50
2023-05-06T15:17:44.909Z,27.50
2023-05-06T15:20:13.481Z,27.30
2023-05-06T15:22:40.900Z,27.30
2023-05-06T15:25:12.392Z,27.30
2023-05-06T15:27:44.163Z,27.30
2023-05-06T15:30:13.468Z,27.30
2023-05-06T15:32:40.858Z,27.20
2023-05-06T15:35:09.515Z,27.10
2023-05-06T15:37:37.260Z,26.90
2023-05-06T15:40:10.462Z,26.60
2023-05-06T15:42:39.110Z,26.40
2023-05-06T15:45:07.134Z,26.30
2023-05-06T15:47:34.526Z,26.30
2023-05-06T15:50:06.844Z,26.30
2023-05-06T15:52:38.575Z,26.30
2023-05-06T15:55:06.444Z,26.40
2023-05-06T15:57:33.905Z,26.40
2023-05-06T16:00:01.813Z,26.40
2023-05-06T16:02:32.856Z,26.40
2023-05-06T16:05:00.421Z,26.40
2023-05-06T16:07:29.329Z,26.40
2023-05-06T16:09:56.686Z,26.30
2023-05-06T16:12:24.056Z,26.30
2023-05-06T16:14:51.405Z,26.30
2023-05-06T16:17:18.833Z,26.30
2023-05-06T16:19:46.208Z,26.30
2023-05-06T16:22:13.554Z,26.20
2023-05-06T16:24:41.010Z,26.20
2023-05-06T16:27:08.386Z,26.10
2023-05-06T16:29:35.850Z,25.90
2023-05-06T16:32:03.456Z,25.90
2023-05-06T16:34:30.955Z,25.90
2023-05-06T16:37:00.596Z,25.90
2023-05-06T16:39:28.243Z,25.90
2023-05-06T16:41:55.631Z,25.80
2023-05-06T16:44:22.994Z,25.80
2023-05-06T16:46:50.401Z,25.70
2023-05-06T16:49:21.050Z,25.60
2023-05-06T16:51:49.842Z,25.60
2023-05-06T16:54:17.324Z,25.60
2023-05-06T16:56:52.022Z,25.40
2023-05-06T16:59:21.961Z,25.40
2023-05-06T17:01:50.357Z,25.40
2023-05-06T17:04:17.776Z,25.30
2023-05-06T17:06:45.162Z,25.30
2023-05-06T17:09:12.612Z,25.20
2023-05-06T17:11:39.975Z,25.10
2023-05-06T17:14:07.351Z,25.00
2023-05-06T17:16:34.818Z,24.90
2023-05-06T17:19:02.347Z,24.90
2023-05-06T17:21:29.726Z,24.80
2023-05-06T17:23:58.109Z,24.80
2023-05-06T17:26:25.603Z,24.80
2023-05-06T17:28:53.022Z,24.70
2023-05-06T17:31:20.406Z,24.70
2023-05-06T17:33:48.019Z,24.60
2023-05-06T17:36:18.294Z,24.60
2023-05-06T17:38:46.091Z,24.50
2023-05-06T17:41:13.751Z,24.50
2023-05-06T17:43:42.922Z,24.40
2023-05-06T17:46:10.406Z,24.30
2023-05-06T17:48:37.770Z,24.30
2023-05-06T17:51:05.256Z,24.20
2023-05-06T17:53:34.104Z,24.20
2023-05-06T17:56:01.544Z,24.10
2023-05-06T17:58:28.946Z,24.10
2023-05-06T18:00:57.418Z,24.00
2023-05-06T18:03:24.924Z,23.90
2023-05-06T18:05:52.371Z,23.80
2023-05-06T18:08:19.781Z,23.70
2023-05-06T18:10:47.206Z,23.70
2023-05-06T18:13:14.705Z,23.60
2023-05-06T18:15:42.393Z,23.50
2023-05-06T18:18:09.819Z,23.40
2023-05-06T18:20:37.224Z,23.30
2023-05-06T18:23:04.591Z,23.30
2023-05-06T18:25:31.964Z,23.20
2023-05-06T18:27:59.327Z,23.20
2023-05-06T18:30:27.514Z,23.10
2023-05-06T18:32:56.652Z,23.00
2023-05-06T18:35:24.597Z,23.00
2023-05-06T18:37:52.518Z,22.90
2023-05-06T18:40:20.042Z,22.90
2023-05-06T18:42:47.767Z,22.80
2023-05-06T18:45:15.196Z,22.80
2023-05-06T18:47:43.050Z,22.70
2023-05-06T18:50:10.789Z,22.70
2023-05-06T18:52:38.287Z,22.60
2023-05-06T18:55:07.402Z,22.50
2023-05-06T18:57:34.864Z,22.50
2023-05-06T19:00:02.264Z,22.40
2023-05-06T19:02:29.695Z,22.30
2023-05-06T19:04:58.248Z,22.30
2023-05-06T19:07:25.894Z,22.20
2023-05-06T19:09:53.262Z,22.10
2023-05-06T19:12:20.712Z,22.00
2023-05-06T19:14:48.136Z,22.00
2023-05-06T19:17:18.156Z,21.90
2023-05-06T19:19:47.057Z,21.80
2023-05-06T19:22:15.737Z,21.80
2023-05-06T19:24:43.182Z,21.80
2023-05-06T19:27:10.830Z,21.80
2023-05-06T19:29:38.277Z,21.70
2023-05-06T19:32:06.138Z,21.80
2023-05-06T19:34:33.708Z,21.80
2023-05-06T19:37:01.098Z,21.70
2023-05-06T19:39:28.456Z,21.60
2023-05-06T19:41:55.918Z,21.60
2023-05-06T19:44:23.300Z,21.60
2023-05-06T19:46:56.540Z,21.50
2023-05-06T19:49:24.031Z,21.40
2023-05-06T19:51:51.408Z,21.40
2023-05-06T19:54:19.657Z,21.30
2023-05-06T19:56:47.008Z,21.30
2023-05-06T19:59:14.508Z,21.20
2023-05-06T20:01:42.005Z,21.10
2023-05-06T20:04:09.913Z,21.00
2023-05-06T20:06:37.314Z,21.00
2023-05-06T20:09:05.475Z,20.90
2023-05-06T20:11:32.879Z,20.80
2023-05-06T20:14:00.369Z,20.80
2023-05-06T20:16:27.767Z,20.70
2023-05-06T20:18:55.418Z,20.70
2023-05-06T20:21:22.773Z,20.70
2023-05-06T20:23:50.624Z,20.60
2023-05-06T20:26:17.992Z,20.60
2023-05-06T20:28:45.408Z,20.60
2023-05-06T20:31:12.807Z,20.60
2023-05-06T20:33:40.336Z,20.60
2023-05-06T20:36:07.782Z,20.50
2023-05-06T20:38:35.181Z,20.40
2023-05-06T20:41:03.036Z,20.40
2023-05-06T20:43:30.687Z,20.30
2023-05-06T20:45:58.122Z,20.20
2023-05-06T20:48:27.685Z,20.10
2023-05-06T20:50:57.033Z,20.10
2023-05-06T20:53:24.604Z,20.00
2023-05-06T20:55:52.121Z,20.00
2023-05-06T20:58:19.527Z,20.10
2023-05-06T21:00:46.926Z,20.10
2023-05-06T21:03:14.564Z,20.10
2023-05-06T21:05:42.084Z,20.10
2023-05-06T21:08:09.401Z,20.10
2023-05-06T21:10:36.947Z,20.10
2023-05-06T21:13:04.793Z,20.00
2023-05-06T21:15:34.205Z,20.10
2023-05-06T21:18:01.628Z,20.10
2023-05-06T21:20:29.033Z,20.10
2023-05-06T21:22:56.460Z,20.10
2023-05-06T21:25:23.925Z,20.10
2023-05-06T21:27:51.320Z,20.00
2023-05-06T21:30:18.789Z,20.00
2023-05-06T21:32:46.541Z,19.90
2023-05-06T21:35:16.497Z,19.80
2023-05-06T21:37:43.927Z,19.80
2023-05-06T21:40:12.248Z,19.80
2023-05-06T21:42:39.705Z,19.70
2023-05-06T21:45:07.531Z,19.70
2023-05-06T21:47:35.154Z,19.70
2023-05-06T21:50:03.033Z,19.60
2023-05-06T21:52:31.394Z,19.60
2023-05-06T21:54:58.864Z,19.60
2023-05-06T21:57:26.530Z,19.50
2023-05-06T21:59:53.939Z,19.50
2023-05-06T22:02:21.354Z,19.40
2023-05-06T22:04:51.789Z,19.40
2023-05-06T22:07:19.191Z,19.30
2023-05-06T22:09:46.550Z,19.20
2023-05-06T22:12:15.452Z,19.20
2023-05-06T22:14:42.809Z,19.10
2023-05-06T22:17:10.583Z,19.00
2023-05-06T22:19:40.851Z,19.00
2023-05-06T22:22:11.487Z,18.90
2023-05-06T22:24:39.671Z,18.90
2023-05-06T22:27:07.121Z,18.90
2023-05-06T22:29:37.139Z,18.90
2023-05-06T22:32:05.156Z,18.80
2023-05-06T22:34:32.663Z,18.80
2023-05-06T22:37:00.959Z,18.80
2023-05-06T22:39:28.918Z,18.80
2023-05-06T22:41:58.999Z,18.80
2023-05-06T22:44:26.405Z,18.70
2023-05-06T22:46:54.901Z,18.80
2023-05-06T22:49:22.330Z,18.80
2023-05-06T22:51:49.785Z,18.80
2023-05-06T22:54:17.182Z,18.80
2023-05-06T22:56:44.570Z,18.70
2023-05-06T22:59:11.981Z,18.80
2023-05-06T23:01:39.448Z,18.60
2023-05-06T23:04:07.315Z,18.60
2023-05-06T23:06:34.814Z,18.60
2023-05-06T23:09:02.172Z,18.50
2023-05-06T23:11:29.573Z,18.50
2023-05-06T23:13:59.601Z,18.40
2023-05-06T23:16:29.429Z,18.40
2023-05-06T23:18:57.471Z,18.40
2023-05-06T23:21:24.903Z,18.40
2023-05-06T23:23:52.321Z,18.30
2023-05-06T23:26:19.701Z,18.40
2023-05-06T23:28:47.913Z,18.40
2023-05-06T23:31:15.840Z,18.30
2023-05-06T23:33:44.068Z,18.20
2023-05-06T23:36:11.462Z,18.20
2023-05-06T23:38:38.828Z,18.30
2023-05-06T23:41:06.491Z,18.30
2023-05-06T23:43:33.880Z,18.30
2023-05-06T23:46:01.269Z,18.20
2023-05-06T23:48:28.672Z,18.20
2023-05-06T23:50:56.044Z,18.10
2023-05-06T23:53:23.447Z,18.10
2023-05-06T23:55:52.478Z,18.10
2023-05-06T23:58:20.678Z,18.00
